Time;durP1;ratioP1;P1;durP2;ratioP2;P2;SDS_P1;SDS_P2;PMS_P1;PMS_P2;Temp;Humidity;BMP_temperature;BMP_pressure;BME280_temperature;BME280_humidity;BME280_pressure;Samples;Min_cycle;Max_cycle;Signal;HPM_P1;HPM_P2
2022/01/25 00:10:14;;;;;;;10.83;9.73;;;;;;;;;;5069919;28;20258;-57
2022/01/25 00:16:08;;;;;;;12.00;10.83;;;;;;;;;;5068237;28;20180;-57
2022/01/25 00:26:59;;;;;;;10.40;9.40;;;;;;;;;;5068107;28;20682;-57
2022/01/25 00:29:33;;;;;;;11.77;9.83;;;;;;;;;;5054396;28;20200;-57
2022/01/25 00:32:06;;;;;;;11.03;9.90;;;;;;;;;;5049296;28;20631;-57
2022/01/25 00:34:35;;;;;;;11.70;10.60;;;;;;;;;;5052799;28;20654;-57
2022/01/25 00:37:01;;;;;;;13.63;10.63;;;;;;;;;;5063543;28;20216;-57
2022/01/25 00:39:28;;;;;;;10.77;9.77;;;;;;;;;;5068287;28;20581;-57
2022/01/25 00:41:54;;;;;;;11.50;9.23;;;;;;;;;;5059360;28;20238;-57
2022/01/25 00:44:34;;;;;;;11.50;10.30;;;;;;;;;;5056193;28;20648;-57
2022/01/25 00:47:01;;;;;;;14.27;11.03;;;;;;;;;;5064229;28;20206;-57
2022/01/25 00:49:29;;;;;;;11.73;10.63;;;;;;;;;;5058992;28;20168;-57
2022/01/25 00:52:04;;;;;;;12.27;11.03;;;;;;;;;;5041667;28;20543;-57
2022/01/25 00:54:32;;;;;;;11.60;10.40;;;;;;;;;;5040693;28;20180;-57
2022/01/25 00:56:59;;;;;;;12.47;11.20;;;;;;;;;;5082306;28;20670;-57
2022/01/25 00:59:26;;;;;;;11.90;10.57;;;;;;;;;;5096862;28;20638;-57
2022/01/25 01:01:53;;;;;;;12.50;10.67;;;;;;;;;;5086372;28;20188;-57
2022/01/25 01:04:20;;;;;;;12.47;11.17;;;;;;;;;;5078883;28;20172;-57
2022/01/25 01:06:47;;;;;;;11.77;10.57;;;;;;;;;;5083256;28;20175;-57
2022/01/25 01:09:15;;;;;;;12.20;10.93;;;;;;;;;;5089488;28;20183;-57
2022/01/25 01:12:06;;;;;;;12.30;10.87;;;;;;;;;;5073980;28;20652;-57
2022/01/25 01:31:11;;;;;;;12.90;11.47;;;;;;;;;;5082162;28;20710;-57
2022/01/25 01:36:56;;;;;;;13.10;11.80;;;;;;;;;;5098086;28;20170;-57
2022/01/25 01:39:38;;;;;;;13.10;11.73;;;;;;;;;;5088351;28;20178;-57
2022/01/25 01:42:14;;;;;;;12.33;11.07;;;;;;;;;;5095088;28;20279;-57
2022/01/25 01:45:05;;;;;;;13.57;12.03;;;;;;;;;;5064022;28;20172;-57
2022/01/25 01:47:43;;;;;;;15.20;13.70;;;;;;;;;;5091739;28;20568;-57
2022/01/25 01:50:14;;;;;;;14.93;12.47;;;;;;;;;;5068759;28;20646;-57
2022/01/25 01:52:41;;;;;;;17.57;12.63;;;;;;;;;;5065143;28;20206;-57
2022/01/25 01:55:08;;;;;;;13.10;11.80;;;;;;;;;;5071695;28;20180;-57
2022/01/25 01:57:35;;;;;;;13.33;11.93;;;;;;;;;;5088259;28;20241;-57
2022/01/25 02:00:10;;;;;;;14.27;12.80;;;;;;;;;;5087911;28;20215;-57
2022/01/25 02:02:37;;;;;;;16.40;13.90;;;;;;;;;;5081016;28;20686;-57
2022/01/25 02:05:03;;;;;;;13.03;11.63;;;;;;;;;;5099062;28;20168;-57
2022/01/25 02:07:29;;;;;;;13.50;12.10;;;;;;;;;;5102820;28;20711;-57
2022/01/25 02:09:56;;;;;;;14.20;12.70;;;;;;;;;;5100896;28;20178;-57
2022/01/25 02:12:22;;;;;;;13.17;11.87;;;;;;;;;;5090216;28;20678;-57
2022/01/25 02:14:48;;;;;;;13.97;12.47;;;;;;;;;;5098081;28;20184;-57
2022/01/25 02:17:53;;;;;;;15.23;13.00;;;;;;;;;;5097109;28;20180;-57
2022/01/25 02:23:12;;;;;;;15.30;13.40;;;;;;;;;;5102980;28;20249;-57
2022/01/25 02:25:38;;;;;;;15.30;13.30;;;;;;;;;;5089315;28;20203;-57
2022/01/25 02:28:05;;;;;;;14.97;12.87;;;;;;;;;;5090499;28;20179;-57
2022/01/25 02:30:31;;;;;;;14.30;12.80;;;;;;;;;;5077374;28;20187;-57
2022/01/25 02:33:00;;;;;;;14.63;13.10;;;;;;;;;;5074896;28;20190;-57
2022/01/25 02:35:30;;;;;;;15.83;13.17;;;;;;;;;;5066147;28;20183;-57
2022/01/25 02:38:02;;;;;;;15.30;13.73;;;;;;;;;;5077690;28;20556;-57
2022/01/25 02:40:29;;;;;;;15.20;13.60;;;;;;;;;;5079383;28;20206;-57
2022/01/25 02:42:56;;;;;;;15.93;14.23;;;;;;;;;;5089300;28;20257;-57
2022/01/25 02:45:46;;;;;;;16.93;13.70;;;;;;;;;;5075760;28;20171;-57
2022/01/25 02:48:30;;;;;;;17.23;14.60;;;;;;;;;;5068385;28;20325;-57
2022/01/25 02:51:01;;;;;;;14.40;12.90;;;;;;;;;;5072727;28;20587;-57
2022/01/25 02:53:27;;;;;;;15.33;13.40;;;;;;;;;;5081891;28;20192;-57
2022/01/25 02:55:54;;;;;;;15.07;13.57;;;;;;;;;;5080946;28;20618;-57
2022/01/25 02:58:21;;;;;;;15.67;14.07;;;;;;;;;;5080533;28;20271;-57
2022/01/25 03:00:50;;;;;;;14.43;12.80;;;;;;;;;;5089120;28;20180;-57
2022/01/25 03:03:16;;;;;;;15.17;13.57;;;;;;;;;;5084813;28;20287;-57
2022/01/25 03:05:43;;;;;;;16.07;13.90;;;;;;;;;;5085919;28;20180;-57
2022/01/25 03:08:12;;;;;;;15.53;12.70;;;;;;;;;;5086792;28;20179;-57
2022/01/25 03:10:40;;;;;;;16.13;13.07;;;;;;;;;;5079888;28;20237;-57
2022/01/25 03:13:10;;;;;;;14.93;12.83;;;;;;;;;;5077868;28;20237;-57
2022/01/25 03:21:01;;;;;;;14.20;12.50;;;;;;;;;;5090405;28;20201;-57
2022/01/25 03:23:30;;;;;;;16.20;13.90;;;;;;;;;;5078767;28;20515;-57
2022/01/25 03:25:56;;;;;;;14.90;13.30;;;;;;;;;;5092006;28;20172;-57
2022/01/25 03:28:25;;;;;;;15.50;13.53;;;;;;;;;;5097845;28;20203;-57
2022/01/25 03:30:52;;;;;;;18.00;13.63;;;;;;;;;;5098313;28;20313;-57
2022/01/25 03:33:18;;;;;;;15.33;12.83;;;;;;;;;;5102392;28;20626;-57
2022/01/25 03:35:50;;;;;;;15.17;13.63;;;;;;;;;;5074841;28;20172;-56
2022/01/25 03:38:17;;;;;;;16.27;14.50;;;;;;;;;;5081946;28;20184;-57
2022/01/25 03:40:45;;;;;;;15.47;13.87;;;;;;;;;;5077068;28;20239;-57
2022/01/25 03:43:11;;;;;;;16.03;13.87;;;;;;;;;;5070931;28;20256;-57
2022/01/25 03:45:41;;;;;;;14.80;13.20;;;;;;;;;;5088255;28;20191;-57
2022/01/25 03:50:39;;;;;;;16.67;13.10;;;;;;;;;;5089055;28;20642;-57
2022/01/25 03:53:06;;;;;;;15.27;13.03;;;;;;;;;;5084118;28;20179;-57
2022/01/25 03:55:32;;;;;;;13.87;12.40;;;;;;;;;;5093099;28;20226;-57
2022/01/25 03:57:59;;;;;;;16.77;14.30;;;;;;;;;;5096073;28;20286;-57
2022/01/25 04:00:25;;;;;;;16.70;13.37;;;;;;;;;;5084152;28;20175;-57
2022/01/25 04:02:57;;;;;;;14.93;12.77;;;;;;;;;;5097396;28;20196;-57
2022/01/25 04:05:35;;;;;;;18.37;14.47;;;;;;;;;;5097718;28;20164;-57
2022/01/25 04:08:01;;;;;;;14.63;13.13;;;;;;;;;;5068515;28;20186;-57
2022/01/25 04:10:31;;;;;;;16.93;13.37;;;;;;;;;;5080913;28;20185;-57
2022/01/25 04:12:57;;;;;;;15.23;12.87;;;;;;;;;;5095033;28;20869;-57
2022/01/25 04:15:29;;;;;;;16.90;13.43;;;;;;;;;;5068211;28;20176;-57
2022/01/25 04:18:23;;;;;;;15.27;13.37;;;;;;;;;;5078377;28;20332;-57
2022/01/25 04:20:53;;;;;;;15.60;13.20;;;;;;;;;;5091766;28;20318;-57
2022/01/25 04:26:04;;;;;;;15.57;13.57;;;;;;;;;;5092456;28;20625;-57
2022/01/25 04:28:30;;;;;;;16.97;13.53;;;;;;;;;;5087172;28;20217;-57
2022/01/25 04:31:00;;;;;;;15.73;13.00;;;;;;;;;;5076939;28;20376;-57
2022/01/25 04:33:39;;;;;;;15.80;13.83;;;;;;;;;;5080956;28;20271;-57
2022/01/25 04:49:38;;;;;;;15.00;13.40;;;;;;;;;;5088093;28;20182;-57
2022/01/25 04:52:09;;;;;;;14.50;12.40;;;;;;;;;;5092451;28;20167;-56
2022/01/25 04:54:50;;;;;;;17.63;13.83;;;;;;;;;;5070123;28;20194;-57
2022/01/25 05:02:17;;;;;;;16.03;14.10;;;;;;;;;;5081906;28;20234;-57
2022/01/25 05:05:12;;;;;;;15.27;12.83;;;;;;;;;;5050051;28;22228;-57
2022/01/25 05:10:02;;;;;;;14.50;13.00;;;;;;;;;;5074463;28;20177;-57
2022/01/25 05:12:41;;;;;;;14.93;12.60;;;;;;;;;;5067828;28;20188;-57
2022/01/25 05:18:16;;;;;;;14.70;12.60;;;;;;;;;;5070943;28;20305;-57
2022/01/25 05:23:30;;;;;;;14.60;12.03;;;;;;;;;;5070576;28;20253;-56
2022/01/25 05:25:57;;;;;;;14.17;11.67;;;;;;;;;;5049297;28;20169;-57
2022/01/25 05:28:25;;;;;;;15.37;12.90;;;;;;;;;;5033573;28;20586;-57
2022/01/25 05:30:52;;;;;;;16.37;13.10;;;;;;;;;;5051659;28;20267;-57
2022/01/25 05:33:18;;;;;;;15.17;13.33;;;;;;;;;;5048623;28;20560;-56
2022/01/25 05:35:47;;;;;;;15.90;13.37;;;;;;;;;;5049012;28;20184;-57
2022/01/25 05:38:13;;;;;;;15.73;13.40;;;;;;;;;;5050659;28;20172;-57
2022/01/25 05:40:45;;;;;;;15.17;13.47;;;;;;;;;;5041890;28;20185;-57
2022/01/25 05:48:10;;;;;;;16.20;13.70;;;;;;;;;;5081455;28;20180;-57
2022/01/25 05:50:36;;;;;;;15.60;13.90;;;;;;;;;;5071905;28;20190;-57
2022/01/25 05:53:03;;;;;;;14.63;12.60;;;;;;;;;;5072741;28;20256;-57
2022/01/25 05:55:29;;;;;;;14.50;12.33;;;;;;;;;;5056284;28;20222;-57
2022/01/25 05:57:55;;;;;;;16.90;12.83;;;;;;;;;;5098366;28;20200;-57
2022/01/25 06:00:22;;;;;;;16.20;13.90;;;;;;;;;;5076353;28;20203;-57
2022/01/25 06:02:53;;;;;;;14.53;12.53;;;;;;;;;;5091528;28;20223;-57
2022/01/25 06:05:19;;;;;;;15.70;12.23;;;;;;;;;;5088262;28;20172;-57
2022/01/25 06:07:46;;;;;;;15.23;13.13;;;;;;;;;;5087771;28;20184;-57
2022/01/25 06:10:15;;;;;;;18.47;13.37;;;;;;;;;;5089081;28;20211;-57
2022/01/25 06:12:44;;;;;;;15.40;12.70;;;;;;;;;;5071323;28;20183;-57
2022/01/25 06:15:11;;;;;;;14.33;12.37;;;;;;;;;;5069620;28;20192;-57
2022/01/25 06:17:37;;;;;;;14.50;12.80;;;;;;;;;;5073874;28;20198;-57
2022/01/25 06:20:03;;;;;;;17.73;13.43;;;;;;;;;;5091030;28;20875;-57
2022/01/25 06:22:34;;;;;;;14.57;12.47;;;;;;;;;;5068920;28;20718;-56
2022/01/25 06:25:00;;;;;;;16.10;14.27;;;;;;;;;;5080997;28;20175;-57
2022/01/25 06:27:27;;;;;;;16.43;13.50;;;;;;;;;;5068703;28;20207;-57
2022/01/25 06:29:55;;;;;;;17.27;13.87;;;;;;;;;;5071777;28;20237;-57
2022/01/25 06:32:22;;;;;;;14.83;13.17;;;;;;;;;;5072238;28;20627;-57
2022/01/25 06:34:48;;;;;;;16.83;13.30;;;;;;;;;;5089736;28;20186;-57
2022/01/25 06:37:14;;;;;;;15.27;12.77;;;;;;;;;;5071929;28;20183;-57
2022/01/25 06:39:44;;;;;;;17.47;13.33;;;;;;;;;;5071909;28;20183;-56
2022/01/25 06:42:11;;;;;;;16.77;13.77;;;;;;;;;;5071955;28;20230;-57
2022/01/25 06:44:38;;;;;;;15.53;13.80;;;;;;;;;;5068781;28;20184;-57
2022/01/25 06:47:04;;;;;;;18.53;14.17;;;;;;;;;;5069687;28;20176;-57
2022/01/25 06:49:33;;;;;;;17.97;13.93;;;;;;;;;;5069581;28;20184;-57
2022/01/25 06:52:00;;;;;;;15.40;12.70;;;;;;;;;;5070651;28;20184;-57
2022/01/25 06:54:26;;;;;;;17.07;13.03;;;;;;;;;;5068807;28;20694;-57
2022/01/25 06:56:52;;;;;;;19.43;14.07;;;;;;;;;;5071153;28;20227;-56
2022/01/25 06:59:18;;;;;;;17.10;14.00;;;;;;;;;;5072406;28;20187;-57
2022/01/25 07:01:45;;;;;;;15.83;13.50;;;;;;;;;;5053669;28;20728;-57
2022/01/25 07:04:11;;;;;;;17.43;13.80;;;;;;;;;;5071131;28;20180;-57
2022/01/25 07:06:38;;;;;;;20.77;13.13;;;;;;;;;;5068807;28;20191;-56
2022/01/25 07:09:04;;;;;;;16.87;12.50;;;;;;;;;;5068940;28;20180;-56
2022/01/25 07:11:30;;;;;;;16.23;13.13;;;;;;;;;;5071700;28;20499;-57
2022/01/25 07:13:57;;;;;;;16.90;13.40;;;;;;;;;;5072268;28;20187;-57
2022/01/25 07:16:24;;;;;;;15.53;13.17;;;;;;;;;;5071280;28;20175;-57
2022/01/25 07:18:51;;;;;;;15.73;13.13;;;;;;;;;;5082749;28;20186;-57
2022/01/25 07:21:20;;;;;;;17.40;13.43;;;;;;;;;;5065806;28;20622;-57
2022/01/25 07:23:46;;;;;;;17.03;13.90;;;;;;;;;;5090421;28;20183;-56
2022/01/25 07:26:13;;;;;;;16.27;14.00;;;;;;;;;;5074576;28;20183;-56
2022/01/25 07:28:39;;;;;;;17.20;13.80;;;;;;;;;;5076893;28;20198;-57
2022/01/25 07:31:08;;;;;;;21.20;14.37;;;;;;;;;;5087293;28;20542;-57
2022/01/25 07:33:34;;;;;;;15.33;12.80;;;;;;;;;;5068082;28;20203;-57
2022/01/25 07:36:00;;;;;;;17.60;14.10;;;;;;;;;;5065246;28;20184;-56
2022/01/25 07:38:27;;;;;;;15.10;11.87;;;;;;;;;;5062973;28;20218;-57
2022/01/25 07:40:53;;;;;;;17.60;14.17;;;;;;;;;;5065956;28;20655;-57
2022/01/25 07:43:20;;;;;;;19.00;14.30;;;;;;;;;;5088448;28;20258;-56
2022/01/25 07:45:51;;;;;;;16.63;12.37;;;;;;;;;;5063137;28;20188;-56
2022/01/25 07:48:18;;;;;;;20.07;14.60;;;;;;;;;;5090497;28;20267;-57
2022/01/25 07:50:44;;;;;;;17.97;13.70;;;;;;;;;;5089515;28;20622;-57
2022/01/25 07:53:11;;;;;;;18.60;14.20;;;;;;;;;;5083549;28;20542;-57
2022/01/25 07:55:37;;;;;;;20.57;14.43;;;;;;;;;;5071405;28;20568;-56
2022/01/25 07:58:04;;;;;;;20.27;14.17;;;;;;;;;;5092308;28;20200;-57
2022/01/25 08:00:30;;;;;;;17.40;13.27;;;;;;;;;;5068257;28;20233;-57
2022/01/25 08:02:56;;;;;;;15.93;13.03;;;;;;;;;;5088232;28;20204;-57
2022/01/25 08:05:25;;;;;;;17.90;13.37;;;;;;;;;;5086986;28;20254;-57
2022/01/25 08:07:52;;;;;;;19.27;14.83;;;;;;;;;;5080695;28;20572;-57
2022/01/25 08:10:18;;;;;;;16.83;13.57;;;;;;;;;;5081187;28;20183;-57
2022/01/25 08:12:45;;;;;;;17.87;14.67;;;;;;;;;;5066895;28;20597;-56
2022/01/25 08:15:12;;;;;;;17.43;14.83;;;;;;;;;;5087778;28;20172;-56
2022/01/25 08:17:38;;;;;;;19.40;15.23;;;;;;;;;;5080872;28;20187;-56
2022/01/25 08:20:07;;;;;;;19.20;13.70;;;;;;;;;;5082313;28;20188;-56
2022/01/25 08:22:34;;;;;;;18.87;14.00;;;;;;;;;;5059007;28;20211;-57
2022/01/25 08:25:01;;;;;;;18.90;13.80;;;;;;;;;;5053511;28;20233;-56
2022/01/25 08:27:27;;;;;;;19.50;15.03;;;;;;;;;;5079467;28;20194;-56
2022/01/25 08:29:54;;;;;;;18.17;14.33;;;;;;;;;;5068579;28;20180;-56
2022/01/25 08:32:21;;;;;;;18.90;14.13;;;;;;;;;;5064272;28;20262;-56
2022/01/25 08:34:48;;;;;;;17.63;14.47;;;;;;;;;;5065034;28;20646;-56
2022/01/25 08:37:14;;;;;;;19.00;14.63;;;;;;;;;;5065266;28;20882;-56
2022/01/25 08:39:40;;;;;;;18.77;14.30;;;;;;;;;;5076892;28;20531;-56
2022/01/25 08:42:08;;;;;;;17.13;14.33;;;;;;;;;;5083764;28;20199;-56
2022/01/25 08:44:34;;;;;;;19.77;14.67;;;;;;;;;;5079245;28;20546;-56
2022/01/25 08:47:04;;;;;;;18.60;14.00;;;;;;;;;;5055432;28;20176;-56
2022/01/25 08:49:30;;;;;;;18.60;13.90;;;;;;;;;;5067478;28;20546;-56
2022/01/25 08:51:57;;;;;;;18.87;13.57;;;;;;;;;;5073191;28;20180;-56
2022/01/25 08:54:25;;;;;;;16.97;14.00;;;;;;;;;;5054788;28;20226;-56
2022/01/25 08:56:51;;;;;;;19.17;14.57;;;;;;;;;;5079211;28;20246;-56
2022/01/25 08:59:20;;;;;;;18.40;14.70;;;;;;;;;;5065928;28;20185;-56
2022/01/25 09:01:46;;;;;;;19.60;14.57;;;;;;;;;;5083953;28;20555;-56
2022/01/25 09:04:12;;;;;;;17.93;13.63;;;;;;;;;;5076890;28;20618;-56
2022/01/25 09:06:39;;;;;;;17.67;13.87;;;;;;;;;;5080260;28;20175;-56
2022/01/25 09:09:07;;;;;;;17.77;14.20;;;;;;;;;;5088870;28;20175;-56
2022/01/25 09:11:38;;;;;;;19.63;14.73;;;;;;;;;;5063760;28;20172;-56
2022/01/25 09:14:06;;;;;;;17.87;13.53;;;;;;;;;;5073018;28;20644;-57
2022/01/25 09:16:33;;;;;;;21.90;14.40;;;;;;;;;;5057178;28;20279;-56
2022/01/25 09:19:00;;;;;;;18.80;14.60;;;;;;;;;;5063888;28;20179;-56
2022/01/25 09:21:26;;;;;;;18.17;13.33;;;;;;;;;;5086169;28;20253;-56
2022/01/25 09:23:53;;;;;;;19.77;15.37;;;;;;;;;;5060275;28;20551;-56
2022/01/25 09:26:19;;;;;;;19.73;14.47;;;;;;;;;;5064532;28;20176;-56
2022/01/25 09:28:50;;;;;;;24.00;14.93;;;;;;;;;;5079527;28;20237;-56
2022/01/25 09:31:16;;;;;;;19.60;15.27;;;;;;;;;;5072069;28;20179;-57
2022/01/25 09:33:43;;;;;;;18.27;14.30;;;;;;;;;;5083232;28;20622;-56
2022/01/25 09:36:25;;;;;;;17.43;14.33;;;;;;;;;;5086179;28;20176;-56
2022/01/25 09:38:55;;;;;;;18.70;14.00;;;;;;;;;;5048652;28;20890;-57
2022/01/25 09:41:22;;;;;;;19.63;14.53;;;;;;;;;;5064082;28;20540;-56
2022/01/25 09:43:48;;;;;;;18.10;14.87;;;;;;;;;;5082660;28;20187;-56
2022/01/25 09:46:15;;;;;;;19.63;14.40;;;;;;;;;;5066556;28;20635;-56
2022/01/25 09:48:44;;;;;;;17.53;14.70;;;;;;;;;;5074260;28;20184;-56
2022/01/25 09:51:11;;;;;;;20.10;15.33;;;;;;;;;;5057849;28;20187;-56
2022/01/25 09:53:38;;;;;;;21.63;16.40;;;;;;;;;;5073861;28;20184;-56
2022/01/25 09:56:05;;;;;;;18.73;14.07;;;;;;;;;;5080626;28;20232;-56
2022/01/25 09:58:31;;;;;;;20.70;14.73;;;;;;;;;;5080479;28;20187;-56
2022/01/25 10:01:03;;;;;;;18.13;14.33;;;;;;;;;;5087363;28;20508;-57
2022/01/25 10:03:44;;;;;;;19.77;15.23;;;;;;;;;;5077300;28;20651;-56
2022/01/25 10:06:16;;;;;;;20.30;15.63;;;;;;;;;;5073920;28;20402;-56
2022/01/25 10:08:43;;;;;;;22.07;16.03;;;;;;;;;;5084259;28;20673;-56
2022/01/25 10:11:10;;;;;;;24.23;16.50;;;;;;;;;;5061047;28;20187;-56
2022/01/25 10:13:37;;;;;;;20.03;15.27;;;;;;;;;;5073797;28;20276;-56
2022/01/25 10:16:09;;;;;;;22.00;16.40;;;;;;;;;;5067982;28;20351;-56
2022/01/25 10:18:38;;;;;;;20.67;16.20;;;;;;;;;;5095397;28;20209;-56
2022/01/25 10:21:10;;;;;;;21.20;15.40;;;;;;;;;;5074074;28;20485;-56
2022/01/25 10:23:36;;;;;;;25.70;15.83;;;;;;;;;;5075172;28;20193;-56
2022/01/25 10:26:05;;;;;;;20.50;16.07;;;;;;;;;;5080113;28;20245;-56
2022/01/25 10:28:32;;;;;;;20.17;16.13;;;;;;;;;;5060312;28;20185;-56
2022/01/25 10:30:59;;;;;;;23.27;16.40;;;;;;;;;;5062102;28;20705;-56
2022/01/25 10:33:34;;;;;;;26.87;16.70;;;;;;;;;;5067549;28;20181;-56
2022/01/25 10:36:10;;;;;;;21.90;15.73;;;;;;;;;;5090611;28;20229;-56
2022/01/25 10:38:36;;;;;;;21.97;15.50;;;;;;;;;;5078873;28;20416;-56
2022/01/25 10:41:04;;;;;;;20.80;15.07;;;;;;;;;;5087256;28;20270;-56
2022/01/25 10:43:31;;;;;;;22.30;15.80;;;;;;;;;;5058906;28;20198;-56
2022/01/25 10:46:30;;;;;;;24.07;15.73;;;;;;;;;;5086825;28;20793;-56
2022/01/25 10:49:00;;;;;;;23.67;16.83;;;;;;;;;;5066512;28;20172;-56
2022/01/25 10:51:40;;;;;;;19.57;15.17;;;;;;;;;;5075565;28;20182;-56
2022/01/25 10:54:17;;;;;;;23.73;16.93;;;;;;;;;;5081953;28;20225;-56
2022/01/25 10:56:49;;;;;;;25.83;16.43;;;;;;;;;;5087352;28;20215;-56
2022/01/25 10:59:20;;;;;;;23.00;16.63;;;;;;;;;;5077796;28;20571;-56
2022/01/25 11:01:49;;;;;;;20.90;16.27;;;;;;;;;;5072985;28;20200;-56
2022/01/25 11:04:17;;;;;;;25.13;16.33;;;;;;;;;;5080478;28;20182;-56
2022/01/25 11:06:44;;;;;;;27.43;18.50;;;;;;;;;;5065308;28;20180;-57
2022/01/25 11:09:11;;;;;;;32.27;20.03;;;;;;;;;;5085077;28;20176;-56
2022/01/25 11:11:40;;;;;;;28.03;18.77;;;;;;;;;;5086562;28;20191;-56
2022/01/25 11:16:53;;;;;;;30.13;18.30;;;;;;;;;;5084982;28;20621;-56
2022/01/25 11:19:21;;;;;;;28.53;18.93;;;;;;;;;;5080309;28;20236;-56
2022/01/25 11:21:48;;;;;;;28.63;19.63;;;;;;;;;;5060936;28;20207;-56
2022/01/25 11:24:19;;;;;;;28.70;19.37;;;;;;;;;;5087893;28;20183;-56
2022/01/25 11:26:46;;;;;;;29.90;19.30;;;;;;;;;;5084580;28;20179;-56
2022/01/25 11:29:16;;;;;;;28.47;19.20;;;;;;;;;;5069526;28;20176;-56
2022/01/25 11:31:45;;;;;;;29.20;18.83;;;;;;;;;;5084586;28;20187;-56
2022/01/25 11:34:14;;;;;;;29.40;18.87;;;;;;;;;;5066548;28;20183;-56
2022/01/25 11:36:50;;;;;;;30.30;19.70;;;;;;;;;;5081310;28;20655;-56
2022/01/25 11:39:17;;;;;;;30.87;19.83;;;;;;;;;;5060472;28;20172;-55
2022/01/25 11:41:43;;;;;;;27.23;19.30;;;;;;;;;;5071555;28;20233;-56
2022/01/25 11:44:11;;;;;;;29.83;18.03;;;;;;;;;;5078936;28;20268;-56
2022/01/25 11:46:38;;;;;;;27.63;18.37;;;;;;;;;;5072918;28;20184;-56
2022/01/25 11:49:08;;;;;;;27.43;18.47;;;;;;;;;;5071773;28;20638;-56
2022/01/25 11:51:35;;;;;;;28.00;17.83;;;;;;;;;;5081141;28;20233;-56
2022/01/25 11:54:02;;;;;;;29.37;19.77;;;;;;;;;;5072087;28;20309;-56
2022/01/25 11:56:29;;;;;;;29.53;18.17;;;;;;;;;;5084392;28;20277;-56
2022/01/25 11:58:58;;;;;;;28.50;18.97;;;;;;;;;;5062868;28;20618;-56
2022/01/25 12:01:25;;;;;;;26.93;18.67;;;;;;;;;;5060681;28;20342;-56
2022/01/25 12:03:56;;;;;;;26.47;17.47;;;;;;;;;;5067209;28;20230;-56
2022/01/25 12:06:34;;;;;;;27.27;17.97;;;;;;;;;;5081839;28;20180;-57
2022/01/25 12:12:09;;;;;;;26.20;18.20;;;;;;;;;;5092304;28;20619;-57
2022/01/25 12:14:54;;;;;;;24.00;17.03;;;;;;;;;;4986373;28;20476;-56
2022/01/25 12:17:26;;;;;;;27.27;18.63;;;;;;;;;;5062299;28;20222;-56
2022/01/25 12:19:59;;;;;;;27.23;17.87;;;;;;;;;;5061823;28;20175;-56
2022/01/25 12:25:11;;;;;;;25.30;17.93;;;;;;;;;;5084035;28;20184;-56
2022/01/25 12:27:50;;;;;;;29.93;18.20;;;;;;;;;;5061290;28;20283;-56
2022/01/25 12:30:36;;;;;;;23.60;16.47;;;;;;;;;;5064048;28;20180;-56
2022/01/25 12:33:28;;;;;;;29.40;19.07;;;;;;;;;;5071928;28;20186;-56
2022/01/25 12:36:03;;;;;;;27.77;18.30;;;;;;;;;;5065702;28;20200;-57
2022/01/25 12:38:39;;;;;;;26.83;18.93;;;;;;;;;;5085132;28;20179;-56
2022/01/25 12:41:09;;;;;;;26.80;18.70;;;;;;;;;;5069093;28;20626;-56
2022/01/25 12:43:39;;;;;;;29.67;18.67;;;;;;;;;;5085926;28;20219;-56
2022/01/25 12:46:09;;;;;;;26.93;18.27;;;;;;;;;;5084457;28;20180;-56
2022/01/25 12:48:42;;;;;;;27.53;17.17;;;;;;;;;;5074249;28;20638;-56
2022/01/25 12:51:10;;;;;;;24.67;16.43;;;;;;;;;;5084663;28;20182;-56
2022/01/25 12:53:38;;;;;;;28.50;18.07;;;;;;;;;;5092445;28;20179;-56
2022/01/25 12:56:07;;;;;;;29.27;18.40;;;;;;;;;;5065408;28;20227;-56
2022/01/25 12:58:34;;;;;;;28.37;18.33;;;;;;;;;;5069516;28;20224;-56
2022/01/25 13:01:03;;;;;;;24.67;16.67;;;;;;;;;;5051394;28;20573;-56
2022/01/25 13:03:34;;;;;;;26.50;19.53;;;;;;;;;;5069085;28;20290;-56
2022/01/25 13:06:13;;;;;;;27.40;17.27;;;;;;;;;;5064056;28;20180;-56
2022/01/25 13:08:45;;;;;;;29.03;19.20;;;;;;;;;;5059709;28;20182;-57
2022/01/25 13:11:17;;;;;;;23.93;17.20;;;;;;;;;;5073540;28;20501;-57
2022/01/25 13:13:56;;;;;;;28.33;17.97;;;;;;;;;;5069639;28;20182;-56
2022/01/25 13:16:55;;;;;;;29.10;19.00;;;;;;;;;;5069956;28;20194;-56
2022/01/25 13:19:26;;;;;;;26.10;17.80;;;;;;;;;;5024556;28;20184;-56
2022/01/25 13:21:59;;;;;;;24.97;17.13;;;;;;;;;;5050499;28;20687;-57
2022/01/25 13:24:30;;;;;;;25.33;17.13;;;;;;;;;;5067101;28;20168;-57
2022/01/25 13:27:12;;;;;;;27.03;18.17;;;;;;;;;;5087229;28;20212;-56
2022/01/25 13:32:29;;;;;;;27.83;18.13;;;;;;;;;;5085124;28;20241;-57
2022/01/25 13:35:04;;;;;;;26.93;17.73;;;;;;;;;;5087381;28;20545;-57
2022/01/25 13:37:33;;;;;;;27.87;17.50;;;;;;;;;;5085513;28;20179;-57
2022/01/25 13:40:01;;;;;;;26.97;18.40;;;;;;;;;;5085519;28;20199;-57
2022/01/25 13:42:38;;;;;;;23.97;17.17;;;;;;;;;;5087773;28;20708;-57
2022/01/25 13:47:58;;;;;;;28.67;17.50;;;;;;;;;;5086418;28;20171;-57
2022/01/25 13:50:25;;;;;;;25.77;18.10;;;;;;;;;;5065384;28;20175;-56
2022/01/25 13:52:52;;;;;;;27.63;16.30;;;;;;;;;;5054408;28;20546;-57
2022/01/25 13:55:18;;;;;;;23.90;17.80;;;;;;;;;;5085797;28;20694;-56
2022/01/25 13:57:47;;;;;;;26.17;17.77;;;;;;;;;;5052481;28;20315;-57
2022/01/25 14:00:14;;;;;;;28.13;18.20;;;;;;;;;;5059390;28;20180;-57
2022/01/25 14:02:40;;;;;;;25.53;17.87;;;;;;;;;;5032987;28;20259;-56
2022/01/25 14:05:09;;;;;;;26.73;17.33;;;;;;;;;;5042127;28;20189;-57
2022/01/25 14:07:38;;;;;;;27.00;17.50;;;;;;;;;;5052462;28;20185;-57
2022/01/25 14:10:06;;;;;;;26.97;17.23;;;;;;;;;;5058090;28;20181;-57
2022/01/25 14:23:34;;;;;;;26.67;16.13;;;;;;;;;;5057436;28;20212;-56
2022/01/25 14:26:02;;;;;;;27.47;17.87;;;;;;;;;;5057224;28;20263;-57
2022/01/25 14:28:38;;;;;;;24.87;17.00;;;;;;;;;;5068853;28;20239;-57
2022/01/25 14:31:04;;;;;;;25.57;17.20;;;;;;;;;;5059391;28;20593;-56
2022/01/25 14:33:34;;;;;;;23.43;16.83;;;;;;;;;;5056310;28;20242;-57
2022/01/25 14:36:05;;;;;;;24.20;17.07;;;;;;;;;;5062338;28;20177;-57
2022/01/25 14:38:33;;;;;;;30.03;18.60;;;;;;;;;;5049520;28;20188;-57
2022/01/25 14:41:09;;;;;;;24.03;15.97;;;;;;;;;;5060752;28;20262;-56
2022/01/25 14:43:37;;;;;;;26.77;17.13;;;;;;;;;;5045859;28;20208;-57
2022/01/25 14:46:14;;;;;;;25.93;17.37;;;;;;;;;;5065269;28;20561;-56
2022/01/25 14:48:44;;;;;;;27.97;17.97;;;;;;;;;;5058477;28;20245;-56
2022/01/25 14:51:12;;;;;;;27.50;17.73;;;;;;;;;;5055053;28;20173;-56
2022/01/25 14:53:39;;;;;;;25.17;16.73;;;;;;;;;;5041636;28;20192;-57
2022/01/25 14:56:06;;;;;;;26.77;17.97;;;;;;;;;;5071397;28;20298;-57
2022/01/25 15:01:19;;;;;;;25.87;17.47;;;;;;;;;;5054679;28;20243;-56
2022/01/25 15:03:45;;;;;;;27.13;18.07;;;;;;;;;;5036530;28;20279;-57
2022/01/25 15:06:13;;;;;;;27.00;17.40;;;;;;;;;;5057329;28;20177;-57
2022/01/25 15:08:47;;;;;;;25.20;16.20;;;;;;;;;;5046956;28;20358;-57
2022/01/25 15:11:13;;;;;;;24.50;17.00;;;;;;;;;;5041381;28;20181;-57
2022/01/25 15:13:40;;;;;;;23.90;17.13;;;;;;;;;;5057879;28;20172;-56
2022/01/25 15:16:18;;;;;;;29.83;16.83;;;;;;;;;;5056519;28;20656;-58
2022/01/25 15:18:45;;;;;;;24.73;17.43;;;;;;;;;;5042985;28;20180;-57
2022/01/25 15:21:12;;;;;;;29.17;18.40;;;;;;;;;;5047434;28;20191;-56
2022/01/25 15:23:39;;;;;;;23.50;17.13;;;;;;;;;;5059987;28;20196;-56
2022/01/25 15:26:10;;;;;;;28.17;18.67;;;;;;;;;;5041964;28;20181;-56
2022/01/25 15:28:40;;;;;;;24.57;17.47;;;;;;;;;;5047337;28;20192;-56
2022/01/25 15:31:10;;;;;;;28.43;17.50;;;;;;;;;;5061854;28;20202;-56
2022/01/25 15:33:37;;;;;;;26.43;17.77;;;;;;;;;;5037760;28;20234;-56
2022/01/25 15:36:06;;;;;;;25.73;17.87;;;;;;;;;;5059732;28;20200;-57
2022/01/25 15:38:40;;;;;;;25.23;17.70;;;;;;;;;;5063865;28;20598;-57
2022/01/25 15:41:11;;;;;;;25.50;17.10;;;;;;;;;;5060993;28;20230;-56
2022/01/25 15:43:49;;;;;;;26.70;17.63;;;;;;;;;;5048772;28;20672;-57
2022/01/25 15:46:55;;;;;;;27.00;16.63;;;;;;;;;;5047514;28;20178;-56
2022/01/25 15:49:16;;;;;;;30.53;18.27;;;;;;;;;;5058272;28;20181;-58
2022/01/25 15:51:43;;;;;;;25.30;16.67;;;;;;;;;;5060115;28;20185;-58
2022/01/25 15:54:09;;;;;;;28.87;17.87;;;;;;;;;;5039213;28;20852;-58
2022/01/25 15:56:36;;;;;;;24.40;17.23;;;;;;;;;;5033468;28;20226;-56
2022/01/25 15:59:02;;;;;;;29.70;17.07;;;;;;;;;;5067864;28;20172;-56
2022/01/25 16:01:28;;;;;;;26.67;17.50;;;;;;;;;;5089655;28;20190;-56
2022/01/25 16:03:55;;;;;;;23.73;16.57;;;;;;;;;;5075102;28;20705;-56
2022/01/25 16:06:22;;;;;;;27.10;17.87;;;;;;;;;;5083656;28;20185;-56
2022/01/25 16:08:48;;;;;;;27.00;16.97;;;;;;;;;;5070166;28;20557;-56
2022/01/25 16:11:16;;;;;;;27.90;18.40;;;;;;;;;;5087533;28;20631;-55
2022/01/25 16:13:43;;;;;;;26.83;16.90;;;;;;;;;;5087351;28;20179;-55
2022/01/25 16:16:10;;;;;;;28.17;17.93;;;;;;;;;;5090368;28;20673;-56
2022/01/25 16:18:37;;;;;;;26.80;16.30;;;;;;;;;;5089548;28;20237;-55
2022/01/25 16:21:03;;;;;;;26.77;16.93;;;;;;;;;;5087372;28;20180;-55
2022/01/25 16:23:29;;;;;;;29.73;18.00;;;;;;;;;;5074419;28;20232;-55